createdAt,value
2023-04-28T00:00:01.146Z,23.2
2023-04-28T00:01:00.607Z,23.2
2023-04-28T00:02:00.846Z,23.2
2023-04-28T00:03:00.797Z,21.6
2023-04-28T00:04:00.947Z,21.6
2023-04-28T00:05:00.766Z,21.6
2023-04-28T00:06:00.936Z,21.6
2023-04-28T00:07:00.615Z,21.6
2023-04-28T00:08:00.685Z,23.9
2023-04-28T00:09:00.609Z,23.9
2023-04-28T00:10:00.632Z,23.9
2023-04-28T00:11:00.623Z,23.9
2023-04-28T00:12:00.615Z,23.9
2023-04-28T00:13:00.698Z,25.1
2023-04-28T00:14:00.634Z,25.1
2023-04-28T00:15:00.756Z,25.1
2023-04-28T00:16:00.637Z,25.1
2023-04-28T00:17:00.657Z,25.1
2023-04-28T00:18:00.632Z,24.3
2023-04-28T00:19:00.642Z,24.3
2023-04-28T00:20:00.673Z,24.3
2023-04-28T00:21:00.648Z,24.3
2023-04-28T00:22:00.704Z,24.3
2023-04-28T00:23:00.646Z,22.6
2023-04-28T00:24:00.742Z,22.6
2023-04-28T00:25:00.856Z,22.6
2023-04-28T00:26:00.637Z,22.6
2023-04-28T00:27:00.625Z,22.6
2023-04-28T00:28:00.781Z,24.0
2023-04-28T00:29:00.614Z,24.0
2023-04-28T00:30:01.027Z,24.0
2023-04-28T00:31:00.928Z,24.0
2023-04-28T00:32:00.665Z,24.0
2023-04-28T00:33:00.709Z,21.9
2023-04-28T00:34:00.621Z,21.9
2023-04-28T00:35:00.638Z,21.9
2023-04-28T00:36:00.728Z,21.9
2023-04-28T00:37:00.611Z,21.9
2023-04-28T00:38:00.659Z,24.7
2023-04-28T00:39:00.676Z,24.7
2023-04-28T00:40:00.666Z,24.7
2023-04-28T00:41:00.725Z,24.7
2023-04-28T00:42:00.656Z,24.7
2023-04-28T00:43:00.634Z,22.2
2023-04-28T00:44:00.611Z,22.2
2023-04-28T00:45:00.706Z,22.2
2023-04-28T00:46:01.359Z,22.2
2023-04-28T00:47:00.708Z,22.2
2023-04-28T00:48:01.304Z,23.9
2023-04-28T00:49:03.116Z,23.9
2023-04-28T00:50:01.019Z,23.9
2023-04-28T00:51:01.498Z,23.9
2023-04-28T00:52:03.801Z,23.9
2023-04-28T00:53:01.225Z,26.6
2023-04-28T00:54:00.783Z,26.6
2023-04-28T00:55:01.166Z,26.6
2023-04-28T00:56:00.899Z,26.6
2023-04-28T00:57:01.140Z,26.6
2023-04-28T00:58:01.456Z,25.4
2023-04-28T00:59:00.618Z,25.4
2023-04-28T01:00:01.058Z,25.4
2023-04-28T01:01:01.854Z,25.4
2023-04-28T01:02:01.352Z,25.4
2023-04-28T01:03:00.968Z,25.2
2023-04-28T01:04:00.842Z,25.2
2023-04-28T01:05:01.385Z,25.2
2023-04-28T01:06:00.682Z,25.2
2023-04-28T01:07:01.295Z,25.2
2023-04-28T01:08:00.780Z,29.1
2023-04-28T01:09:00.644Z,29.1
2023-04-28T01:10:01.773Z,29.1
2023-04-28T01:11:00.832Z,29.1
2023-04-28T01:12:00.634Z,29.1
2023-04-28T01:13:00.605Z,22.8
2023-04-28T01:14:00.636Z,22.8
2023-04-28T01:15:00.777Z,22.8
2023-04-28T01:16:00.704Z,22.8
2023-04-28T01:17:00.839Z,22.8
2023-04-28T01:18:00.663Z,22.4
2023-04-28T01:19:00.685Z,22.4
2023-04-28T01:20:00.657Z,22.4
2023-04-28T01:21:00.626Z,22.4
2023-04-28T01:22:00.642Z,22.4
2023-04-28T01:23:00.628Z,21.6
2023-04-28T01:24:00.847Z,21.6
2023-04-28T01:25:00.696Z,21.6
2023-04-28T01:26:00.621Z,21.6
2023-04-28T01:27:00.606Z,21.6
2023-04-28T01:28:00.612Z,22.1
2023-04-28T01:29:00.657Z,22.1
2023-04-28T01:30:00.771Z,22.1
2023-04-28T01:31:00.640Z,22.1
2023-04-28T01:32:00.974Z,22.1
2023-04-28T01:33:01.132Z,23.0
2023-04-28T01:34:00.717Z,23.0
2023-04-28T01:35:00.661Z,23.0
2023-04-28T01:36:00.641Z,23.0
2023-04-28T01:37:00.617Z,23.0
2023-04-28T01:38:00.660Z,20.5
2023-04-28T01:39:00.808Z,20.5
2023-04-28T01:40:00.635Z,20.5
2023-04-28T01:41:00.849Z,20.5
2023-04-28T01:42:00.667Z,20.5
2023-04-28T01:43:00.638Z,19.9
2023-04-28T01:44:00.619Z,19.9
2023-04-28T01:45:00.665Z,19.9
2023-04-28T01:46:00.657Z,19.9
2023-04-28T01:47:00.646Z,19.9
2023-04-28T01:48:00.764Z,22.1
2023-04-28T01:49:00.629Z,22.1
2023-04-28T01:50:00.726Z,22.1
2023-04-28T01:51:01.052Z,22.1
2023-04-28T01:52:00.636Z,22.1
2023-04-28T01:53:00.663Z,19.3
2023-04-28T01:54:00.610Z,19.3
2023-04-28T01:55:00.673Z,19.3
2023-04-28T01:56:00.615Z,19.3
2023-04-28T01:57:00.618Z,19.3
2023-04-28T01:58:00.609Z,21.0
2023-04-28T01:59:00.656Z,21.0
2023-04-28T02:00:01.794Z,21.0
2023-04-28T02:01:00.617Z,21.0
2023-04-28T02:02:00.700Z,21.0
2023-04-28T02:03:00.717Z,20.4
2023-04-28T02:04:00.905Z,20.4
2023-04-28T02:05:00.751Z,20.4
2023-04-28T02:06:00.636Z,20.4
2023-04-28T02:07:00.612Z,20.4
2023-04-28T02:08:00.610Z,20.4
2023-04-28T02:09:00.621Z,20.4
2023-04-28T02:10:00.658Z,20.4
2023-04-28T02:11:00.620Z,20.4
2023-04-28T02:12:00.646Z,20.4
2023-04-28T02:13:00.608Z,23.4
2023-04-28T02:14:00.616Z,23.4
2023-04-28T02:15:00.647Z,23.4
2023-04-28T02:16:00.936Z,23.4
2023-04-28T02:17:00.613Z,23.4
2023-04-28T02:18:00.640Z,22.2
2023-04-28T02:19:00.624Z,22.2
2023-04-28T02:20:00.717Z,22.2
2023-04-28T02:21:08.617Z,22.2
2023-04-28T02:22:00.617Z,22.2
2023-04-28T02:23:00.616Z,21.3
2023-04-28T02:24:00.621Z,21.3
2023-04-28T02:25:00.708Z,21.3
2023-04-28T02:26:00.896Z,21.3
2023-04-28T02:27:00.671Z,21.3
2023-04-28T02:28:00.631Z,22.0
2023-04-28T02:29:00.637Z,22.0
2023-04-28T02:30:00.718Z,22.0
2023-04-28T02:31:10.024Z,22.0
2023-04-28T02:32:00.688Z,22.0
2023-04-28T02:33:00.736Z,19.1
2023-04-28T02:34:00.678Z,19.1
2023-04-28T02:35:00.650Z,19.1
2023-04-28T02:36:01.582Z,19.1
2023-04-28T02:37:00.769Z,19.1
2023-04-28T02:38:00.673Z,20.7
2023-04-28T02:39:00.616Z,20.7
2023-04-28T02:40:00.646Z,20.7
2023-04-28T02:41:03.617Z,20.7
2023-04-28T02:42:00.611Z,20.7
2023-04-28T02:43:00.635Z,20.4
2023-04-28T02:44:00.656Z,20.4
2023-04-28T02:45:00.650Z,20.4
2023-04-28T02:46:02.444Z,20.4
2023-04-28T02:47:00.753Z,20.4
2023-04-28T02:48:00.662Z,20.5
2023-04-28T02:49:00.609Z,20.5
2023-04-28T02:50:00.848Z,20.5
2023-04-28T02:51:00.857Z,20.5
2023-04-28T02:52:00.647Z,20.5
2023-04-28T02:53:00.606Z,21.1
2023-04-28T02:54:00.606Z,21.1
2023-04-28T02:55:00.628Z,21.1
2023-04-28T02:56:00.634Z,21.1
2023-04-28T02:57:00.635Z,21.1
2023-04-28T02:58:00.603Z,21.8
2023-04-28T02:59:00.626Z,21.8
2023-04-28T03:00:00.664Z,21.8
2023-04-28T03:01:00.709Z,21.8
2023-04-28T03:02:00.620Z,21.8
2023-04-28T03:03:00.773Z,19.1
2023-04-28T03:04:00.763Z,19.1
2023-04-28T03:05:00.723Z,19.1
2023-04-28T03:06:00.627Z,19.1
2023-04-28T03:07:00.636Z,19.1
2023-04-28T03:08:00.637Z,22.7
2023-04-28T03:09:00.613Z,22.7
2023-04-28T03:10:00.727Z,22.7
2023-04-28T03:11:00.614Z,22.7
2023-04-28T03:12:00.606Z,22.7
2023-04-28T03:13:00.638Z,25.9
2023-04-28T03:14:00.607Z,25.9
2023-04-28T03:15:00.933Z,25.9
2023-04-28T03:16:00.682Z,25.9
2023-04-28T03:17:00.635Z,25.9
2023-04-28T03:18:00.614Z,19.4
2023-04-28T03:19:00.717Z,19.4
2023-04-28T03:20:00.928Z,19.4
2023-04-28T03:21:00.627Z,19.4
2023-04-28T03:22:00.615Z,19.4
2023-04-28T03:23:00.616Z,22.8
2023-04-28T03:24:01.104Z,22.8
2023-04-28T03:25:01.133Z,22.8
2023-04-28T03:26:00.635Z,22.8
2023-04-28T03:27:00.655Z,22.8
2023-04-28T03:28:00.896Z,22.6
2023-04-28T03:29:00.622Z,22.6
2023-04-28T03:30:00.713Z,22.6
2023-04-28T03:31:00.922Z,22.6
2023-04-28T03:32:00.646Z,22.6
2023-04-28T03:33:00.643Z,23.0
2023-04-28T03:34:00.628Z,23.0
2023-04-28T03:35:00.660Z,23.0
2023-04-28T03:36:00.646Z,23.0
2023-04-28T03:37:00.644Z,23.0
2023-04-28T03:38:00.631Z,21.0
2023-04-28T03:39:00.619Z,21.0
2023-04-28T03:40:00.665Z,21.0
2023-04-28T03:41:00.599Z,21.0
2023-04-28T03:42:00.877Z,21.0
2023-04-28T03:43:02.122Z,20.6
2023-04-28T03:44:00.640Z,20.6
2023-04-28T03:45:00.702Z,20.6
2023-04-28T03:46:00.632Z,20.6
2023-04-28T03:47:00.839Z,20.6
2023-04-28T03:48:00.736Z,23.8
2023-04-28T03:49:00.859Z,23.8
2023-04-28T03:50:00.600Z,23.8
2023-04-28T03:51:00.599Z,23.8
2023-04-28T03:52:00.600Z,23.8
2023-04-28T03:53:00.693Z,24.6
2023-04-28T03:54:00.652Z,24.6
2023-04-28T03:55:00.615Z,24.6
2023-04-28T03:56:00.676Z,24.6
2023-04-28T03:57:00.672Z,24.6
2023-04-28T03:58:00.655Z,27.0
2023-04-28T03:59:00.645Z,27.0
2023-04-28T04:00:01.004Z,27.0
2023-04-28T04:01:00.646Z,27.0
2023-04-28T04:02:00.651Z,27.0
2023-04-28T04:03:00.792Z,24.4
2023-04-28T04:04:00.856Z,24.4
2023-04-28T04:05:01.023Z,24.4
2023-04-28T04:06:00.677Z,24.4
2023-04-28T04:07:01.174Z,24.4
2023-04-28T04:08:00.606Z,26.0
2023-04-28T04:09:00.771Z,26.0
2023-04-28T04:10:03.342Z,26.0
2023-04-28T04:11:00.647Z,26.0
2023-04-28T04:12:00.606Z,26.0
2023-04-28T04:13:00.624Z,24.8
2023-04-28T04:14:00.620Z,24.8
2023-04-28T04:15:00.710Z,24.8
2023-04-28T04:16:01.176Z,24.8
2023-04-28T04:17:00.620Z,24.8
2023-04-28T04:18:00.685Z,25.7
2023-04-28T04:19:00.609Z,25.7
2023-04-28T04:20:00.646Z,25.7
2023-04-28T04:21:00.616Z,25.7
2023-04-28T04:22:00.643Z,25.7
2023-04-28T04:23:00.627Z,23.5
2023-04-28T04:24:00.637Z,23.5
2023-04-28T04:25:00.611Z,23.5
2023-04-28T04:26:00.633Z,23.5
2023-04-28T04:27:00.663Z,23.5
2023-04-28T04:28:00.646Z,24.8
2023-04-28T04:29:00.643Z,24.8
2023-04-28T04:30:00.665Z,24.8
2023-04-28T04:31:00.686Z,24.8
2023-04-28T04:32:00.632Z,24.8
2023-04-28T04:33:00.697Z,24.7
2023-04-28T04:34:00.606Z,24.7
2023-04-28T04:35:00.615Z,24.7
2023-04-28T04:36:00.615Z,24.7
2023-04-28T04:37:00.626Z,24.7
2023-04-28T04:38:01.881Z,24.5
2023-04-28T04:39:00.622Z,24.5
2023-04-28T04:40:00.858Z,24.5
2023-04-28T04:41:00.629Z,24.5
2023-04-28T04:42:10.153Z,25.2
2023-04-28T04:43:00.596Z,25.2
2023-04-28T04:44:00.657Z,25.2
2023-04-28T04:45:00.668Z,25.2
2023-04-28T04:46:00.741Z,25.2
2023-04-28T04:47:00.873Z,25.1
2023-04-28T04:48:01.522Z,25.1
2023-04-28T04:49:00.622Z,25.1
2023-04-28T04:50:00.705Z,25.1
2023-04-28T04:51:00.607Z,25.1
2023-04-28T04:52:00.612Z,27.8
2023-04-28T04:53:00.608Z,27.8
2023-04-28T04:54:00.684Z,27.8
2023-04-28T04:55:00.625Z,27.8
2023-04-28T04:56:00.764Z,27.8
2023-04-28T04:57:00.786Z,26.6
2023-04-28T04:58:00.648Z,26.6
2023-04-28T04:59:01.660Z,26.6
2023-04-28T05:00:00.642Z,26.6
2023-04-28T05:01:00.603Z,26.6
2023-04-28T05:02:00.712Z,25.9
2023-04-28T05:03:00.862Z,25.9
2023-04-28T05:04:00.924Z,25.9
2023-04-28T05:05:12.204Z,25.9
2023-04-28T05:06:00.622Z,25.9
2023-04-28T05:07:00.610Z,27.7
2023-04-28T05:08:00.776Z,27.7
2023-04-28T05:09:00.618Z,27.7
2023-04-28T05:10:00.868Z,27.7
2023-04-28T05:11:00.644Z,27.7
2023-04-28T05:12:00.655Z,25.1
2023-04-28T05:13:00.623Z,25.1
2023-04-28T05:14:00.640Z,25.1
2023-04-28T05:15:00.616Z,25.1
2023-04-28T05:16:00.649Z,25.1
2023-04-28T05:17:00.764Z,29.0
2023-04-28T05:18:00.705Z,29.0
2023-04-28T05:19:00.664Z,29.0
2023-04-28T05:20:00.659Z,29.0
2023-04-28T05:21:00.620Z,29.0
2023-04-28T05:22:00.678Z,33.3
2023-04-28T05:23:00.620Z,33.3
2023-04-28T05:24:01.188Z,33.3
2023-04-28T05:25:00.630Z,33.3
2023-04-28T05:26:00.641Z,33.3
2023-04-28T05:27:00.609Z,25.7
2023-04-28T05:28:00.742Z,25.7
2023-04-28T05:29:00.620Z,25.7
2023-04-28T05:30:00.653Z,25.7
2023-04-28T05:31:00.655Z,25.7
2023-04-28T05:32:00.649Z,24.9
2023-04-28T05:33:00.693Z,24.9
2023-04-28T05:34:00.656Z,24.9
2023-04-28T05:35:00.622Z,24.9
2023-04-28T05:36:00.718Z,24.9
2023-04-28T05:37:00.685Z,29.7
2023-04-28T05:38:00.692Z,29.7
2023-04-28T05:39:00.922Z,29.7
2023-04-28T05:40:00.619Z,29.7
2023-04-28T05:41:01.373Z,29.7
2023-04-28T05:42:00.618Z,23.1
2023-04-28T05:43:00.605Z,23.1
2023-04-28T05:44:00.632Z,23.1
2023-04-28T05:45:00.653Z,23.1
2023-04-28T05:46:00.664Z,23.1
2023-04-28T05:47:00.668Z,26.2
2023-04-28T05:48:00.665Z,26.2
2023-04-28T05:49:00.617Z,26.2
2023-04-28T05:50:00.630Z,26.2
2023-04-28T05:51:00.624Z,26.2
2023-04-28T05:52:00.715Z,26.9
2023-04-28T05:53:00.615Z,26.9
2023-04-28T05:54:00.736Z,26.9
2023-04-28T05:55:00.661Z,26.9
2023-04-28T05:56:00.625Z,26.9
2023-04-28T05:57:01.589Z,24.8
2023-04-28T05:58:01.099Z,24.8
2023-04-28T05:59:00.791Z,24.8
2023-04-28T06:00:00.703Z,24.8
2023-04-28T06:01:00.601Z,24.8
2023-04-28T06:02:00.679Z,23.2
2023-04-28T06:03:00.971Z,23.2
2023-04-28T06:04:01.208Z,23.2
2023-04-28T06:05:00.887Z,23.2
2023-04-28T06:06:00.692Z,23.2
2023-04-28T06:07:00.663Z,20.0
2023-04-28T06:08:00.612Z,20.0
2023-04-28T06:09:01.590Z,20.0
2023-04-28T06:10:00.677Z,20.0
2023-04-28T06:11:00.605Z,20.0
2023-04-28T06:12:00.610Z,21.7
2023-04-28T06:13:00.603Z,21.7
2023-04-28T06:14:00.614Z,21.7
2023-04-28T06:15:00.641Z,21.7
2023-04-28T06:16:00.727Z,21.7
2023-04-28T06:17:00.661Z,23.0
2023-04-28T06:18:00.723Z,23.0
2023-04-28T06:19:00.943Z,23.0
2023-04-28T06:20:00.637Z,23.0
2023-04-28T06:21:00.716Z,23.0
2023-04-28T06:22:00.625Z,19.2
2023-04-28T06:23:00.800Z,19.2
2023-04-28T06:24:00.614Z,19.2
2023-04-28T06:25:00.620Z,19.2
2023-04-28T06:26:00.804Z,19.2
2023-04-28T06:27:00.723Z,20.2
2023-04-28T06:28:00.953Z,20.2
2023-04-28T06:29:00.671Z,20.2
2023-04-28T06:30:00.678Z,20.2
2023-04-28T06:31:00.638Z,20.2
2023-04-28T06:32:00.648Z,19.8
2023-04-28T06:33:00.684Z,19.8
2023-04-28T06:34:00.633Z,19.8
2023-04-28T06:35:00.657Z,19.8
2023-04-28T06:36:00.642Z,19.8
2023-04-28T06:37:00.702Z,21.0
2023-04-28T06:38:01.584Z,21.0
2023-04-28T06:39:00.658Z,21.0
2023-04-28T06:40:00.670Z,21.0
2023-04-28T06:41:00.611Z,21.0
2023-04-28T06:42:00.630Z,19.7
2023-04-28T06:43:00.646Z,19.7
2023-04-28T06:44:00.620Z,19.7
2023-04-28T06:45:00.860Z,19.7
2023-04-28T06:46:00.778Z,19.7
2023-04-28T06:47:00.710Z,19.3
2023-04-28T06:48:00.642Z,19.3
2023-04-28T06:49:00.895Z,19.3
2023-04-28T06:50:00.677Z,19.3
2023-04-28T06:51:00.623Z,19.3
2023-04-28T06:52:00.612Z,21.9
2023-04-28T06:53:00.704Z,21.9
2023-04-28T06:54:00.612Z,21.9
2023-04-28T06:55:00.687Z,21.9
2023-04-28T06:56:00.649Z,21.9
2023-04-28T06:57:00.648Z,21.1
2023-04-28T06:58:00.659Z,21.1
2023-04-28T06:59:00.643Z,21.1
2023-04-28T07:00:01.432Z,21.1
2023-04-28T07:01:00.653Z,21.1
2023-04-28T07:02:00.660Z,20.1
2023-04-28T07:03:00.879Z,20.1
2023-04-28T07:04:00.788Z,20.1
2023-04-28T07:05:00.665Z,20.1
2023-04-28T07:06:00.661Z,20.1
2023-04-28T07:07:00.678Z,19.8
2023-04-28T07:08:00.612Z,19.8
2023-04-28T07:09:00.805Z,19.8
2023-04-28T07:10:00.735Z,19.8
2023-04-28T07:11:00.631Z,19.8
2023-04-28T07:12:00.739Z,20.9
2023-04-28T07:13:00.866Z,20.9
2023-04-28T07:14:00.624Z,20.9
2023-04-28T07:15:00.648Z,20.9
2023-04-28T07:16:00.877Z,20.9
2023-04-28T07:17:00.663Z,18.3
2023-04-28T07:18:00.676Z,18.3
2023-04-28T07:19:00.884Z,18.3
2023-04-28T07:20:00.630Z,18.3
2023-04-28T07:21:02.315Z,18.3
2023-04-28T07:22:00.685Z,19.9
2023-04-28T07:23:00.616Z,19.9
2023-04-28T07:24:00.653Z,19.9
2023-04-28T07:25:00.675Z,19.9
2023-04-28T07:26:00.605Z,19.9
2023-04-28T07:27:00.641Z,21.0
2023-04-28T07:28:02.870Z,21.0
2023-04-28T07:29:01.607Z,21.0
2023-04-28T07:30:03.097Z,21.0
2023-04-28T07:31:00.614Z,21.0
2023-04-28T07:32:01.392Z,18.7
2023-04-28T07:33:01.394Z,18.7
2023-04-28T07:34:00.813Z,18.7
2023-04-28T07:35:00.657Z,18.7
2023-04-28T07:36:00.773Z,18.7
2023-04-28T07:37:01.603Z,17.6
2023-04-28T07:38:01.181Z,17.6
2023-04-28T07:39:00.613Z,17.6
2023-04-28T07:40:00.681Z,17.6
2023-04-28T07:41:02.747Z,17.6
2023-04-28T07:42:01.005Z,13.7
2023-04-28T07:43:00.606Z,13.7
2023-04-28T07:44:00.617Z,13.7
2023-04-28T07:45:00.766Z,13.7
2023-04-28T07:46:00.669Z,13.7
2023-04-28T07:47:01.750Z,15.2
2023-04-28T07:48:00.677Z,15.2
2023-04-28T07:49:01.314Z,15.2
2023-04-28T07:50:01.476Z,15.2
2023-04-28T07:51:00.900Z,15.2
2023-04-28T07:52:00.634Z,15.1
2023-04-28T07:53:00.605Z,15.1
2023-04-28T07:54:00.641Z,15.1
2023-04-28T07:55:00.670Z,15.1
2023-04-28T07:56:00.761Z,15.1
2023-04-28T07:57:00.597Z,16.2
2023-04-28T07:58:00.638Z,16.2
2023-04-28T07:59:00.644Z,16.2
2023-04-28T08:00:00.750Z,16.2
2023-04-28T08:01:00.638Z,16.2
2023-04-28T08:02:00.880Z,14.8
2023-04-28T08:03:00.861Z,14.8
2023-04-28T08:04:01.085Z,14.8
2023-04-28T08:05:01.003Z,14.8
2023-04-28T08:06:00.892Z,14.8
2023-04-28T08:07:00.679Z,16.3
2023-04-28T08:08:00.673Z,16.3
2023-04-28T08:09:00.833Z,16.3
2023-04-28T08:10:00.636Z,16.3
2023-04-28T08:11:01.158Z,16.3
2023-04-28T08:12:01.078Z,15.8
2023-04-28T08:13:00.602Z,15.8
2023-04-28T08:14:00.735Z,15.8
2023-04-28T08:15:00.790Z,15.8
2023-04-28T08:16:00.763Z,15.8
2023-04-28T08:17:00.637Z,14.1
2023-04-28T08:18:01.100Z,14.1
2023-04-28T08:19:00.754Z,14.1
2023-04-28T08:20:00.679Z,14.1
2023-04-28T08:21:00.636Z,14.1
2023-04-28T08:22:00.658Z,12.4
2023-04-28T08:23:00.650Z,12.4
2023-04-28T08:24:00.616Z,12.4
2023-04-28T08:25:00.741Z,12.4
2023-04-28T08:26:00.668Z,12.4
2023-04-28T08:27:01.682Z,13.0
2023-04-28T08:28:01.201Z,13.0
2023-04-28T08:29:00.659Z,13.0
2023-04-28T08:30:00.695Z,13.0
2023-04-28T08:31:00.679Z,13.0
2023-04-28T08:32:00.649Z,11.3
2023-04-28T08:33:00.625Z,11.3
2023-04-28T08:34:00.613Z,11.3
2023-04-28T08:35:00.772Z,11.3
2023-04-28T08:36:00.791Z,11.3
2023-04-28T08:37:00.871Z,9.7
2023-04-28T08:38:00.664Z,9.7
2023-04-28T08:39:00.609Z,9.7
2023-04-28T08:40:01.032Z,9.7
2023-04-28T08:41:02.830Z,9.7
2023-04-28T08:42:02.884Z,12.5
2023-04-28T08:43:00.639Z,12.5
2023-04-28T08:44:00.672Z,12.5
2023-04-28T08:45:02.417Z,12.5
2023-04-28T08:46:05.188Z,12.5
2023-04-28T08:47:03.354Z,10.8
2023-04-28T08:48:03.798Z,10.8
2023-04-28T08:49:03.029Z,10.8
2023-04-28T08:50:02.790Z,10.8
2023-04-28T08:51:00.875Z,10.8
2023-04-28T08:52:00.663Z,10.4
2023-04-28T08:53:03.272Z,10.4
2023-04-28T08:55:05.565Z,10.4
2023-04-28T08:56:04.348Z,10.4
2023-04-28T08:57:00.894Z,9.5
2023-04-28T08:58:01.927Z,9.5
2023-04-28T08:59:01.886Z,9.5
2023-04-28T09:00:00.637Z,9.5
2023-04-28T09:01:00.604Z,9.5
2023-04-28T09:02:00.696Z,11.4
2023-04-28T09:03:00.789Z,11.4
2023-04-28T09:04:01.038Z,11.4
2023-04-28T09:05:00.888Z,11.4
2023-04-28T09:06:01.304Z,11.4
2023-04-28T09:07:00.602Z,10.4
2023-04-28T09:08:01.200Z,10.4
2023-04-28T09:09:18.046Z,10.4
2023-04-28T09:10:18.919Z,10.4
2023-04-28T09:11:08.992Z,10.4
2023-04-28T09:12:02.101Z,11.9
2023-04-28T09:13:00.671Z,11.9
2023-04-28T09:14:11.516Z,11.9
2023-04-28T09:15:00.604Z,11.9
2023-04-28T09:16:01.920Z,11.9
2023-04-28T09:17:02.372Z,12.5
2023-04-28T09:18:01.797Z,12.5
2023-04-28T09:19:00.725Z,12.5
2023-04-28T09:20:00.699Z,12.5
2023-04-28T09:21:02.747Z,12.5
2023-04-28T09:22:07.766Z,10.1
2023-04-28T09:23:12.693Z,10.1
2023-04-28T09:24:00.666Z,10.1
2023-04-28T09:25:10.333Z,10.1
2023-04-28T09:26:03.927Z,10.1
2023-04-28T09:27:02.359Z,11.0
2023-04-28T09:28:20.537Z,11.0
2023-04-28T09:29:11.316Z,11.0
2023-04-28T09:30:00.621Z,11.0
2023-04-28T09:31:01.327Z,11.0
2023-04-28T09:32:11.595Z,11.1
2023-04-28T09:33:03.975Z,11.1
2023-04-28T09:34:00.597Z,11.1
2023-04-28T09:35:01.642Z,11.1
2023-04-28T09:36:00.626Z,11.1
2023-04-28T09:37:14.561Z,12.4
2023-04-28T09:38:00.655Z,12.4
2023-04-28T09:39:00.761Z,12.4
2023-04-28T09:40:09.849Z,12.4
2023-04-28T09:41:01.923Z,12.4
2023-04-28T09:42:00.658Z,11.5
2023-04-28T09:43:06.336Z,11.5
2023-04-28T09:44:10.625Z,11.5
2023-04-28T09:45:02.355Z,11.5
2023-04-28T09:46:02.482Z,11.5
2023-04-28T09:47:20.544Z,9.6
2023-04-28T09:48:09.243Z,9.6
2023-04-28T09:49:00.680Z,9.6
2023-04-28T09:50:03.180Z,9.6
2023-04-28T09:51:02.672Z,9.6
2023-04-28T09:52:12.104Z,11.1
2023-04-28T09:53:00.716Z,11.1
2023-04-28T09:54:01.643Z,11.1
2023-04-28T09:55:02.938Z,11.1
2023-04-28T09:56:02.397Z,11.1
2023-04-28T09:57:00.699Z,10.9
2023-04-28T09:58:04.776Z,10.9
2023-04-28T09:59:01.026Z,10.9
2023-04-28T10:00:01.947Z,10.9
2023-04-28T10:01:00.649Z,10.9
2023-04-28T10:02:04.615Z,10.4
2023-04-28T10:03:01.247Z,10.4
2023-04-28T10:04:00.891Z,10.4
2023-04-28T10:05:01.389Z,10.4
2023-04-28T10:06:00.973Z,10.4
2023-04-28T10:07:00.983Z,11.0
2023-04-28T10:08:02.149Z,11.0
2023-04-28T10:09:01.730Z,11.0
2023-04-28T10:10:01.756Z,11.0
2023-04-28T10:11:00.969Z,11.0
2023-04-28T10:12:01.396Z,11.8
2023-04-28T10:13:01.436Z,11.8
2023-04-28T10:14:00.663Z,11.8
2023-04-28T10:15:00.864Z,11.8
2023-04-28T10:16:01.374Z,11.8
2023-04-28T10:17:01.089Z,12.1
2023-04-28T10:18:02.722Z,12.1
2023-04-28T10:19:01.893Z,12.1
2023-04-28T10:20:00.780Z,12.1
2023-04-28T10:21:03.685Z,12.1
2023-04-28T10:22:13.243Z,12.3
2023-04-28T10:23:20.530Z,12.3
2023-04-28T10:24:20.530Z,12.3
2023-04-28T10:25:11.192Z,12.3
2023-04-28T10:26:02.757Z,12.3
2023-04-28T10:27:08.762Z,13.2
2023-04-28T10:28:05.246Z,13.2
2023-04-28T10:29:00.790Z,13.2
2023-04-28T10:30:22.730Z,13.2
2023-04-28T10:31:12.541Z,13.2
2023-04-28T10:32:18.865Z,10.2
2023-04-28T10:33:07.911Z,10.2
2023-04-28T10:34:20.532Z,10.2
2023-04-28T10:35:20.528Z,10.2
2023-04-28T10:36:00.635Z,10.2
2023-04-28T10:37:00.656Z,9.0
2023-04-28T10:38:09.511Z,9.0
2023-04-28T10:39:09.462Z,9.0
2023-04-28T10:40:20.523Z,9.0
2023-04-28T10:41:01.136Z,9.0
2023-04-28T10:42:00.628Z,9.0
2023-04-28T10:43:01.789Z,9.0
2023-04-28T10:44:20.562Z,9.0
2023-04-28T10:45:00.681Z,9.0
2023-04-28T10:46:02.424Z,9.0
2023-04-28T10:47:00.711Z,12.1
2023-04-28T10:48:00.765Z,12.1
2023-04-28T10:49:00.651Z,12.1
2023-04-28T10:50:05.447Z,12.1
2023-04-28T10:51:04.035Z,12.1
2023-04-28T10:52:00.640Z,10.8
2023-04-28T10:53:00.634Z,10.8
2023-04-28T10:54:08.075Z,10.8
2023-04-28T10:55:22.429Z,10.8
2023-04-28T10:56:05.190Z,10.8
2023-04-28T10:57:14.113Z,8.5
2023-04-28T10:58:20.551Z,8.5
2023-04-28T10:59:20.528Z,8.5
2023-04-28T11:00:20.525Z,8.5
2023-04-28T11:01:18.013Z,8.5
2023-04-28T11:02:20.602Z,10.1
2023-04-28T11:03:00.848Z,10.1
2023-04-28T11:04:08.738Z,10.1
2023-04-28T11:05:11.244Z,10.1
2023-04-28T11:06:16.934Z,10.1
2023-04-28T11:07:09.642Z,10.2
2023-04-28T11:08:18.075Z,10.2
2023-04-28T11:09:13.093Z,10.2
2023-04-28T11:10:00.636Z,10.2
2023-04-28T11:11:11.297Z,10.2
2023-04-28T11:12:00.623Z,8.8
2023-04-28T11:13:20.547Z,8.8
2023-04-28T11:14:18.027Z,8.8
2023-04-28T11:15:11.026Z,8.8
2023-04-28T11:16:04.656Z,8.8
2023-04-28T11:17:03.857Z,8.2
2023-04-28T11:18:02.913Z,8.2
2023-04-28T11:19:01.072Z,8.2
2023-04-28T11:20:01.476Z,8.2
2023-04-28T11:21:00.624Z,8.2
2023-04-28T11:22:04.743Z,7.2
2023-04-28T11:23:03.086Z,7.2
2023-04-28T11:24:07.883Z,7.2
2023-04-28T11:25:01.642Z,7.2
2023-04-28T11:26:00.613Z,7.2
2023-04-28T11:27:00.657Z,8.2
2023-04-28T11:28:04.023Z,8.2
2023-04-28T11:29:00.726Z,8.2
2023-04-28T11:30:00.736Z,8.2
2023-04-28T11:31:11.153Z,8.2
2023-04-28T11:32:01.629Z,9.1
2023-04-28T11:33:01.924Z,9.1
2023-04-28T11:34:05.542Z,9.1
2023-04-28T11:35:00.969Z,9.1
2023-04-28T11:36:00.728Z,9.1
2023-04-28T11:37:01.487Z,11.0
2023-04-28T11:38:01.880Z,11.0
2023-04-28T11:39:03.689Z,11.0
2023-04-28T11:40:09.668Z,11.0
2023-04-28T11:41:00.681Z,11.0
2023-04-28T11:42:08.118Z,7.4
2023-04-28T11:43:01.793Z,7.4
2023-04-28T11:44:13.613Z,7.4
2023-04-28T11:45:00.825Z,7.4
2023-04-28T11:46:00.659Z,7.4
2023-04-28T11:47:02.808Z,7.3
2023-04-28T11:48:00.642Z,7.3
2023-04-28T11:49:03.477Z,7.3
2023-04-28T11:50:00.698Z,7.3
2023-04-28T11:51:00.608Z,7.3
2023-04-28T11:52:05.190Z,8.4
2023-04-28T11:53:00.617Z,8.4
2023-04-28T11:54:01.374Z,8.4
2023-04-28T11:55:00.803Z,8.4
2023-04-28T11:56:04.467Z,8.4
2023-04-28T11:57:01.126Z,8.5
2023-04-28T11:58:20.549Z,8.5
2023-04-28T11:59:03.848Z,8.5
2023-04-28T12:00:11.391Z,8.5
2023-04-28T12:01:11.930Z,8.5
2023-04-28T12:02:04.463Z,8.3
2023-04-28T12:03:06.654Z,8.3
2023-04-28T12:04:00.814Z,8.3
2023-04-28T12:05:08.597Z,8.3
2023-04-28T12:06:00.696Z,8.3
2023-04-28T12:07:03.050Z,6.1
2023-04-28T12:08:00.761Z,6.1
2023-04-28T12:09:14.279Z,6.1
2023-04-28T12:10:11.879Z,6.1
2023-04-28T12:11:08.790Z,6.1
2023-04-28T12:12:03.467Z,8.8
2023-04-28T12:13:14.247Z,8.8
2023-04-28T12:14:03.354Z,8.8
2023-04-28T12:15:03.052Z,8.8
2023-04-28T12:16:01.944Z,8.8
2023-04-28T12:17:00.986Z,8.4
2023-04-28T12:18:09.054Z,8.4
2023-04-28T12:19:00.626Z,8.4
2023-04-28T12:20:04.464Z,8.4
2023-04-28T12:21:01.199Z,8.4
2023-04-28T12:22:03.599Z,7.9
2023-04-28T12:23:00.613Z,7.9
2023-04-28T12:24:00.639Z,7.9
2023-04-28T12:25:12.021Z,7.9
2023-04-28T12:26:01.793Z,7.9
2023-04-28T12:27:14.668Z,7.2
2023-04-28T12:28:02.989Z,7.2
2023-04-28T12:29:00.609Z,7.2
2023-04-28T12:30:00.948Z,7.2
2023-04-28T12:31:05.467Z,7.2
2023-04-28T12:32:00.613Z,9.0
2023-04-28T12:33:00.886Z,9.0
2023-04-28T12:34:00.613Z,9.0
2023-04-28T12:35:00.631Z,9.0
2023-04-28T12:36:00.661Z,9.0
2023-04-28T12:37:01.909Z,6.5
2023-04-28T12:38:00.602Z,6.5
2023-04-28T12:39:00.644Z,6.5
2023-04-28T12:40:00.645Z,6.5
2023-04-28T12:41:00.615Z,6.5
2023-04-28T12:42:01.808Z,6.3
2023-04-28T12:43:00.644Z,6.3
2023-04-28T12:44:00.619Z,6.3
2023-04-28T12:45:00.710Z,6.3
2023-04-28T12:46:00.732Z,6.3
2023-04-28T12:47:01.568Z,5.8
2023-04-28T12:48:00.637Z,5.8
2023-04-28T12:49:01.316Z,5.8
2023-04-28T12:50:00.660Z,5.8
2023-04-28T12:51:00.604Z,5.8
2023-04-28T12:52:00.766Z,6.8
2023-04-28T12:53:00.621Z,6.8
2023-04-28T12:54:00.625Z,6.8
2023-04-28T12:55:01.456Z,6.8
2023-04-28T12:56:00.633Z,6.8
2023-04-28T12:57:00.709Z,6.9
2023-04-28T12:58:00.628Z,6.9
2023-04-28T12:59:00.683Z,6.9
2023-04-28T13:00:01.059Z,6.9
2023-04-28T13:01:00.637Z,6.9
2023-04-28T13:02:00.838Z,7.0
2023-04-28T13:03:00.743Z,7.0
2023-04-28T13:04:00.921Z,7.0
2023-04-28T13:05:00.736Z,7.0
2023-04-28T13:06:00.644Z,7.0
2023-04-28T13:07:00.708Z,6.7
2023-04-28T13:08:00.634Z,6.7
2023-04-28T13:09:00.611Z,6.7
2023-04-28T13:10:00.739Z,6.7
2023-04-28T13:11:03.007Z,6.7
2023-04-28T13:12:00.621Z,6.5
2023-04-28T13:13:00.644Z,6.5
2023-04-28T13:14:00.623Z,6.5
2023-04-28T13:15:01.428Z,6.5
2023-04-28T13:16:00.627Z,6.5
2023-04-28T13:17:00.741Z,6.1
2023-04-28T13:18:00.647Z,6.1
2023-04-28T13:19:02.267Z,6.1
2023-04-28T13:20:00.994Z,6.1
2023-04-28T13:21:00.605Z,6.1
2023-04-28T13:22:00.606Z,6.6
2023-04-28T13:23:00.620Z,6.6
2023-04-28T13:24:00.609Z,6.6